sensor_id;sensor_type;location;lat;lon;timestamp;P1;durP1;ratioP1;P2;durP2;ratioP2
36379;SDS011;22411;53.016;18.632;2023-11-22T00:01:37;10.33;;;6.27;;
36379;SDS011;22411;53.016;18.632;2023-11-22T00:04:03;12.67;;;6.33;;
36379;SDS011;22411;53.016;18.632;2023-11-22T00:06:29;10.47;;;6.73;;
36379;SDS011;22411;53.016;18.632;2023-11-22T00:08:55;11.13;;;5.63;;
36379;SDS011;22411;53.016;18.632;2023-11-22T00:11:21;8.00;;;5.03;;
36379;SDS011;22411;53.016;18.632;2023-11-22T00:13:46;11.63;;;5.77;;
36379;SDS011;22411;53.016;18.632;2023-11-22T00:16:14;11.67;;;5.60;;
36379;SDS011;22411;53.016;18.632;2023-11-22T00:18:41;11.63;;;6.40;;
36379;SDS011;22411;53.016;18.632;2023-11-22T00:21:07;11.33;;;6.27;;
36379;SDS011;22411;53.016;18.632;2023-11-22T00:23:33;11.90;;;6.00;;
36379;SDS011;22411;53.016;18.632;2023-11-22T00:25:58;14.40;;;6.57;;
36379;SDS011;22411;53.016;18.632;2023-11-22T00:28:24;14.63;;;6.80;;
36379;SDS011;22411;53.016;18.632;2023-11-22T00:30:50;13.27;;;6.37;;
36379;SDS011;22411;53.016;18.632;2023-11-22T00:33:16;13.13;;;6.17;;
36379;SDS011;22411;53.016;18.632;2023-11-22T00:35:43;12.03;;;6.80;;
36379;SDS011;22411;53.016;18.632;2023-11-22T00:38:09;11.43;;;5.93;;
36379;SDS011;22411;53.016;18.632;2023-11-22T00:40:35;12.60;;;6.53;;
36379;SDS011;22411;53.016;18.632;2023-11-22T00:43:00;13.80;;;7.97;;
36379;SDS011;22411;53.016;18.632;2023-11-22T00:45:26;12.90;;;7.67;;
36379;SDS011;22411;53.016;18.632;2023-11-22T00:47:52;16.33;;;9.00;;
36379;SDS011;22411;53.016;18.632;2023-11-22T00:50:18;19.30;;;9.27;;
36379;SDS011;22411;53.016;18.632;2023-11-22T00:52:46;16.67;;;8.77;;
36379;SDS011;22411;53.016;18.632;2023-11-22T00:55:12;16.83;;;8.97;;
36379;SDS011;22411;53.016;18.632;2023-11-22T00:57:38;17.60;;;9.03;;
36379;SDS011;22411;53.016;18.632;2023-11-22T01:00:05;13.83;;;8.33;;
36379;SDS011;22411;53.016;18.632;2023-11-22T01:02:36;19.47;;;10.00;;
36379;SDS011;22411;53.016;18.632;2023-11-22T01:05:06;14.23;;;8.00;;
36379;SDS011;22411;53.016;18.632;2023-11-22T01:07:35;14.20;;;7.57;;
36379;SDS011;22411;53.016;18.632;2023-11-22T01:10:02;15.30;;;8.17;;
36379;SDS011;22411;53.016;18.632;2023-11-22T01:12:27;15.93;;;7.90;;
36379;SDS011;22411;53.016;18.632;2023-11-22T01:14:53;14.77;;;7.40;;
36379;SDS011;22411;53.016;18.632;2023-11-22T01:17:19;13.13;;;6.77;;
36379;SDS011;22411;53.016;18.632;2023-11-22T01:19:45;15.27;;;7.63;;
36379;SDS011;22411;53.016;18.632;2023-11-22T01:22:10;16.20;;;6.93;;
36379;SDS011;22411;53.016;18.632;2023-11-22T01:24:36;12.33;;;6.87;;
36379;SDS011;22411;53.016;18.632;2023-11-22T01:27:03;13.60;;;7.43;;
36379;SDS011;22411;53.016;18.632;2023-11-22T01:29:29;14.93;;;7.87;;
36379;SDS011;22411;53.016;18.632;2023-11-22T01:31:55;14.50;;;8.20;;
36379;SDS011;22411;53.016;18.632;2023-11-22T01:34:21;15.03;;;7.70;;
36379;SDS011;22411;53.016;18.632;2023-11-22T01:36:49;12.73;;;7.00;;
36379;SDS011;22411;53.016;18.632;2023-11-22T01:39:15;14.43;;;7.67;;
36379;SDS011;22411;53.016;18.632;2023-11-22T01:41:44;13.57;;;7.90;;
36379;SDS011;22411;53.016;18.632;2023-11-22T01:44:10;12.20;;;7.60;;
36379;SDS011;22411;53.016;18.632;2023-11-22T01:46:36;13.23;;;7.67;;
36379;SDS011;22411;53.016;18.632;2023-11-22T01:49:03;14.13;;;8.63;;
36379;SDS011;22411;53.016;18.632;2023-11-22T01:51:28;16.60;;;8.63;;
36379;SDS011;22411;53.016;18.632;2023-11-22T01:53:55;15.13;;;7.33;;
36379;SDS011;22411;53.016;18.632;2023-11-22T01:56:23;15.13;;;8.20;;
36379;SDS011;22411;53.016;18.632;2023-11-22T01:58:52;14.67;;;8.03;;
36379;SDS011;22411;53.016;18.632;2023-11-22T02:01:19;12.90;;;7.43;;
36379;SDS011;22411;53.016;18.632;2023-11-22T02:03:46;15.13;;;8.27;;
36379;SDS011;22411;53.016;18.632;2023-11-22T02:06:17;16.20;;;8.00;;
36379;SDS011;22411;53.016;18.632;2023-11-22T02:08:43;12.40;;;7.17;;
36379;SDS011;22411;53.016;18.632;2023-11-22T02:11:09;18.17;;;9.73;;
36379;SDS011;22411;53.016;18.632;2023-11-22T02:13:35;14.03;;;7.53;;
36379;SDS011;22411;53.016;18.632;2023-11-22T02:16:02;16.80;;;8.53;;
36379;SDS011;22411;53.016;18.632;2023-11-22T02:18:29;14.37;;;8.43;;
36379;SDS011;22411;53.016;18.632;2023-11-22T02:20:55;17.37;;;8.43;;
36379;SDS011;22411;53.016;18.632;2023-11-22T02:23:21;12.83;;;8.10;;
36379;SDS011;22411;53.016;18.632;2023-11-22T02:25:47;14.10;;;7.47;;
36379;SDS011;22411;53.016;18.632;2023-11-22T02:28:13;16.00;;;8.47;;
36379;SDS011;22411;53.016;18.632;2023-11-22T02:30:39;14.17;;;8.13;;
36379;SDS011;22411;53.016;18.632;2023-11-22T02:33:05;18.50;;;9.00;;
36379;SDS011;22411;53.016;18.632;2023-11-22T02:35:31;18.87;;;9.27;;
36379;SDS011;22411;53.016;18.632;2023-11-22T02:37:58;18.97;;;10.17;;
36379;SDS011;22411;53.016;18.632;2023-11-22T02:40:24;18.43;;;10.70;;
36379;SDS011;22411;53.016;18.632;2023-11-22T02:42:51;17.03;;;9.73;;
36379;SDS011;22411;53.016;18.632;2023-11-22T02:45:23;17.77;;;10.17;;
36379;SDS011;22411;53.016;18.632;2023-11-22T02:47:52;18.07;;;9.63;;
36379;SDS011;22411;53.016;18.632;2023-11-22T02:50:17;19.83;;;9.07;;
36379;SDS011;22411;53.016;18.632;2023-11-22T02:52:44;17.37;;;9.03;;
36379;SDS011;22411;53.016;18.632;2023-11-22T02:55:09;23.87;;;10.80;;
36379;SDS011;22411;53.016;18.632;2023-11-22T02:57:36;17.70;;;9.83;;
36379;SDS011;22411;53.016;18.632;2023-11-22T03:00:02;23.47;;;9.93;;
36379;SDS011;22411;53.016;18.632;2023-11-22T03:02:30;22.20;;;10.90;;
36379;SDS011;22411;53.016;18.632;2023-11-22T03:04:57;22.90;;;9.87;;
36379;SDS011;22411;53.016;18.632;2023-11-22T03:07:26;19.03;;;9.00;;
36379;SDS011;22411;53.016;18.632;2023-11-22T03:09:52;18.60;;;9.33;;
36379;SDS011;22411;53.016;18.632;2023-11-22T03:12:19;15.50;;;8.87;;
36379;SDS011;22411;53.016;18.632;2023-11-22T03:14:49;19.30;;;9.90;;
36379;SDS011;22411;53.016;18.632;2023-11-22T03:17:15;22.97;;;9.80;;
36379;SDS011;22411;53.016;18.632;2023-11-22T03:19:40;21.13;;;11.53;;
36379;SDS011;22411;53.016;18.632;2023-11-22T03:22:07;24.23;;;11.80;;
36379;SDS011;22411;53.016;18.632;2023-11-22T03:24:32;22.80;;;11.07;;
36379;SDS011;22411;53.016;18.632;2023-11-22T03:27:02;22.00;;;10.23;;
36379;SDS011;22411;53.016;18.632;2023-11-22T03:29:28;17.70;;;9.20;;
36379;SDS011;22411;53.016;18.632;2023-11-22T03:31:54;17.83;;;9.40;;
36379;SDS011;22411;53.016;18.632;2023-11-22T03:34:20;26.20;;;11.10;;
36379;SDS011;22411;53.016;18.632;2023-11-22T03:36:47;23.23;;;12.20;;
36379;SDS011;22411;53.016;18.632;2023-11-22T03:39:12;24.67;;;11.40;;
36379;SDS011;22411;53.016;18.632;2023-11-22T03:41:41;24.47;;;11.47;;
36379;SDS011;22411;53.016;18.632;2023-11-22T03:44:07;21.40;;;11.47;;
36379;SDS011;22411;53.016;18.632;2023-11-22T03:46:37;25.53;;;11.67;;
36379;SDS011;22411;53.016;18.632;2023-11-22T03:49:04;21.57;;;12.53;;
36379;SDS011;22411;53.016;18.632;2023-11-22T03:51:32;18.27;;;9.37;;
36379;SDS011;22411;53.016;18.632;2023-11-22T03:53:58;19.17;;;9.67;;
36379;SDS011;22411;53.016;18.632;2023-11-22T03:56:24;18.10;;;10.60;;
36379;SDS011;22411;53.016;18.632;2023-11-22T03:58:50;17.40;;;10.27;;
36379;SDS011;22411;53.016;18.632;2023-11-22T04:01:17;18.40;;;9.70;;
36379;SDS011;22411;53.016;18.632;2023-11-22T04:03:44;17.23;;;8.10;;
36379;SDS011;22411;53.016;18.632;2023-11-22T04:06:09;16.90;;;9.10;;
36379;SDS011;22411;53.016;18.632;2023-11-22T04:08:35;18.47;;;9.50;;
36379;SDS011;22411;53.016;18.632;2023-11-22T04:11:03;15.13;;;9.73;;
36379;SDS011;22411;53.016;18.632;2023-11-22T04:13:30;18.13;;;9.77;;
36379;SDS011;22411;53.016;18.632;2023-11-22T04:15:56;17.23;;;9.43;;
36379;SDS011;22411;53.016;18.632;2023-11-22T04:18:22;17.47;;;9.50;;
36379;SDS011;22411;53.016;18.632;2023-11-22T04:20:48;19.70;;;9.40;;
36379;SDS011;22411;53.016;18.632;2023-11-22T04:23:13;17.80;;;9.77;;
36379;SDS011;22411;53.016;18.632;2023-11-22T04:25:40;18.90;;;9.50;;
36379;SDS011;22411;53.016;18.632;2023-11-22T04:28:07;19.57;;;10.47;;
36379;SDS011;22411;53.016;18.632;2023-11-22T04:30:35;19.03;;;9.97;;
36379;SDS011;22411;53.016;18.632;2023-11-22T04:33:01;20.33;;;10.67;;
36379;SDS011;22411;53.016;18.632;2023-11-22T04:35:27;21.07;;;11.17;;
36379;SDS011;22411;53.016;18.632;2023-11-22T04:37:53;24.57;;;12.50;;
36379;SDS011;22411;53.016;18.632;2023-11-22T04:40:20;25.30;;;11.60;;
36379;SDS011;22411;53.016;18.632;2023-11-22T04:42:46;19.40;;;10.83;;
36379;SDS011;22411;53.016;18.632;2023-11-22T04:45:13;20.53;;;11.10;;
36379;SDS011;22411;53.016;18.632;2023-11-22T04:47:39;22.33;;;12.07;;
36379;SDS011;22411;53.016;18.632;2023-11-22T04:50:05;18.70;;;10.37;;
36379;SDS011;22411;53.016;18.632;2023-11-22T04:52:32;20.57;;;8.70;;
36379;SDS011;22411;53.016;18.632;2023-11-22T04:54:58;19.80;;;10.63;;
36379;SDS011;22411;53.016;18.632;2023-11-22T04:57:23;26.80;;;13.33;;
36379;SDS011;22411;53.016;18.632;2023-11-22T04:59:49;21.10;;;10.93;;
36379;SDS011;22411;53.016;18.632;2023-11-22T05:02:15;22.97;;;11.63;;
36379;SDS011;22411;53.016;18.632;2023-11-22T05:04:41;25.90;;;13.20;;
36379;SDS011;22411;53.016;18.632;2023-11-22T05:07:07;23.63;;;11.97;;
36379;SDS011;22411;53.016;18.632;2023-11-22T05:09:34;24.67;;;13.43;;
36379;SDS011;22411;53.016;18.632;2023-11-22T05:12:00;25.20;;;12.13;;
36379;SDS011;22411;53.016;18.632;2023-11-22T05:14:26;21.90;;;12.90;;
36379;SDS011;22411;53.016;18.632;2023-11-22T05:16:51;22.20;;;13.40;;
36379;SDS011;22411;53.016;18.632;2023-11-22T05:19:17;26.37;;;13.77;;
36379;SDS011;22411;53.016;18.632;2023-11-22T05:21:44;25.30;;;13.77;;
36379;SDS011;22411;53.016;18.632;2023-11-22T05:24:10;29.07;;;14.83;;
36379;SDS011;22411;53.016;18.632;2023-11-22T05:26:35;37.80;;;17.40;;
36379;SDS011;22411;53.016;18.632;2023-11-22T05:29:01;36.07;;;15.47;;
36379;SDS011;22411;53.016;18.632;2023-11-22T05:31:29;33.90;;;15.60;;
36379;SDS011;22411;53.016;18.632;2023-11-22T05:33:55;33.17;;;16.20;;
36379;SDS011;22411;53.016;18.632;2023-11-22T05:36:21;28.30;;;13.53;;
36379;SDS011;22411;53.016;18.632;2023-11-22T05:38:47;28.83;;;14.20;;
36379;SDS011;22411;53.016;18.632;2023-11-22T05:41:12;29.07;;;15.67;;
36379;SDS011;22411;53.016;18.632;2023-11-22T05:43:38;30.53;;;15.70;;
36379;SDS011;22411;53.016;18.632;2023-11-22T05:46:04;30.00;;;15.30;;
36379;SDS011;22411;53.016;18.632;2023-11-22T05:48:30;37.27;;;17.10;;
36379;SDS011;22411;53.016;18.632;2023-11-22T05:50:56;49.10;;;19.87;;
36379;SDS011;22411;53.016;18.632;2023-11-22T05:53:22;49.40;;;20.83;;
36379;SDS011;22411;53.016;18.632;2023-11-22T05:55:48;38.13;;;18.70;;
36379;SDS011;22411;53.016;18.632;2023-11-22T05:58:14;47.57;;;21.50;;
36379;SDS011;22411;53.016;18.632;2023-11-22T06:00:43;46.87;;;20.70;;
36379;SDS011;22411;53.016;18.632;2023-11-22T06:03:13;44.73;;;20.97;;
36379;SDS011;22411;53.016;18.632;2023-11-22T06:05:39;44.73;;;21.27;;
36379;SDS011;22411;53.016;18.632;2023-11-22T06:08:05;43.67;;;20.63;;
36379;SDS011;22411;53.016;18.632;2023-11-22T06:10:31;42.07;;;20.90;;
36379;SDS011;22411;53.016;18.632;2023-11-22T06:12:57;41.77;;;20.00;;
36379;SDS011;22411;53.016;18.632;2023-11-22T06:15:23;43.50;;;19.87;;
36379;SDS011;22411;53.016;18.632;2023-11-22T06:17:49;44.37;;;20.77;;
36379;SDS011;22411;53.016;18.632;2023-11-22T06:20:15;47.60;;;21.13;;
36379;SDS011;22411;53.016;18.632;2023-11-22T06:22:41;41.83;;;20.83;;
36379;SDS011;22411;53.016;18.632;2023-11-22T06:25:11;39.13;;;20.43;;
36379;SDS011;22411;53.016;18.632;2023-11-22T06:27:38;41.27;;;17.60;;
36379;SDS011;22411;53.016;18.632;2023-11-22T06:30:04;45.50;;;19.10;;
36379;SDS011;22411;53.016;18.632;2023-11-22T06:32:32;36.63;;;18.60;;
36379;SDS011;22411;53.016;18.632;2023-11-22T06:34:59;40.57;;;20.47;;
36379;SDS011;22411;53.016;18.632;2023-11-22T06:37:25;38.73;;;19.13;;
36379;SDS011;22411;53.016;18.632;2023-11-22T06:39:51;41.10;;;18.87;;
36379;SDS011;22411;53.016;18.632;2023-11-22T06:42:17;42.90;;;20.13;;
36379;SDS011;22411;53.016;18.632;2023-11-22T06:44:44;47.20;;;19.00;;
36379;SDS011;22411;53.016;18.632;2023-11-22T06:47:13;42.10;;;18.77;;
36379;SDS011;22411;53.016;18.632;2023-11-22T06:49:39;45.40;;;19.73;;
36379;SDS011;22411;53.016;18.632;2023-11-22T06:52:05;40.13;;;19.40;;
36379;SDS011;22411;53.016;18.632;2023-11-22T06:54:30;46.83;;;21.10;;
36379;SDS011;22411;53.016;18.632;2023-11-22T06:56:57;46.60;;;21.33;;
36379;SDS011;22411;53.016;18.632;2023-11-22T06:59:22;42.53;;;22.67;;
36379;SDS011;22411;53.016;18.632;2023-11-22T07:01:48;41.13;;;20.77;;
36379;SDS011;22411;53.016;18.632;2023-11-22T07:04:14;45.53;;;20.90;;
36379;SDS011;22411;53.016;18.632;2023-11-22T07:06:40;43.73;;;20.70;;
36379;SDS011;22411;53.016;18.632;2023-11-22T07:09:08;41.20;;;19.13;;
36379;SDS011;22411;53.016;18.632;2023-11-22T07:11:37;35.37;;;20.10;;
36379;SDS011;22411;53.016;18.632;2023-11-22T07:14:03;38.87;;;19.13;;
36379;SDS011;22411;53.016;18.632;2023-11-22T07:16:29;46.53;;;24.47;;
36379;SDS011;22411;53.016;18.632;2023-11-22T07:18:56;41.77;;;21.60;;
36379;SDS011;22411;53.016;18.632;2023-11-22T07:21:22;42.53;;;19.77;;
36379;SDS011;22411;53.016;18.632;2023-11-22T07:23:48;33.23;;;18.30;;
36379;SDS011;22411;53.016;18.632;2023-11-22T07:26:14;43.23;;;21.47;;
36379;SDS011;22411;53.016;18.632;2023-11-22T07:28:40;43.00;;;19.63;;
36379;SDS011;22411;53.016;18.632;2023-11-22T07:31:07;44.23;;;27.33;;
36379;SDS011;22411;53.016;18.632;2023-11-22T07:33:34;46.80;;;25.43;;
36379;SDS011;22411;53.016;18.632;2023-11-22T07:36:00;45.97;;;24.93;;
36379;SDS011;22411;53.016;18.632;2023-11-22T07:38:28;45.43;;;22.87;;
36379;SDS011;22411;53.016;18.632;2023-11-22T07:40:55;46.77;;;25.93;;
36379;SDS011;22411;53.016;18.632;2023-11-22T07:43:21;47.47;;;23.87;;
36379;SDS011;22411;53.016;18.632;2023-11-22T07:45:47;50.87;;;24.30;;
36379;SDS011;22411;53.016;18.632;2023-11-22T07:48:14;56.43;;;26.43;;
36379;SDS011;22411;53.016;18.632;2023-11-22T07:50:40;45.20;;;24.63;;
36379;SDS011;22411;53.016;18.632;2023-11-22T07:53:11;40.30;;;21.80;;
36379;SDS011;22411;53.016;18.632;2023-11-22T07:55:39;36.83;;;19.13;;
36379;SDS011;22411;53.016;18.632;2023-11-22T07:58:04;72.30;;;48.67;;
36379;SDS011;22411;53.016;18.632;2023-11-22T08:00:32;48.00;;;29.30;;
36379;SDS011;22411;53.016;18.632;2023-11-22T08:03:02;43.17;;;24.07;;
36379;SDS011;22411;53.016;18.632;2023-11-22T08:05:31;38.93;;;19.43;;
36379;SDS011;22411;53.016;18.632;2023-11-22T08:08:04;30.57;;;17.77;;
36379;SDS011;22411;53.016;18.632;2023-11-22T08:10:34;33.27;;;19.50;;
36379;SDS011;22411;53.016;18.632;2023-11-22T08:13:00;37.70;;;20.40;;
36379;SDS011;22411;53.016;18.632;2023-11-22T08:15:27;46.37;;;23.87;;
36379;SDS011;22411;53.016;18.632;2023-11-22T08:17:53;70.83;;;36.23;;
36379;SDS011;22411;53.016;18.632;2023-11-22T08:20:20;56.50;;;33.63;;
36379;SDS011;22411;53.016;18.632;2023-11-22T08:22:45;47.93;;;23.30;;
36379;SDS011;22411;53.016;18.632;2023-11-22T08:25:12;49.80;;;24.80;;
36379;SDS011;22411;53.016;18.632;2023-11-22T08:27:39;44.40;;;28.97;;
36379;SDS011;22411;53.016;18.632;2023-11-22T08:30:07;26.67;;;17.07;;
36379;SDS011;22411;53.016;18.632;2023-11-22T08:32:44;23.97;;;13.53;;
36379;SDS011;22411;53.016;18.632;2023-11-22T08:35:16;28.23;;;14.80;;
36379;SDS011;22411;53.016;18.632;2023-11-22T08:37:42;20.30;;;12.63;;
36379;SDS011;22411;53.016;18.632;2023-11-22T08:40:09;19.00;;;10.63;;
36379;SDS011;22411;53.016;18.632;2023-11-22T08:42:46;19.43;;;10.17;;
36379;SDS011;22411;53.016;18.632;2023-11-22T08:45:12;22.43;;;12.80;;
36379;SDS011;22411;53.016;18.632;2023-11-22T08:47:39;26.57;;;14.30;;
36379;SDS011;22411;53.016;18.632;2023-11-22T08:50:09;30.43;;;16.43;;
36379;SDS011;22411;53.016;18.632;2023-11-22T08:52:38;33.33;;;18.40;;
36379;SDS011;22411;53.016;18.632;2023-11-22T08:55:07;36.97;;;21.87;;
36379;SDS011;22411;53.016;18.632;2023-11-22T08:57:37;30.30;;;15.47;;
36379;SDS011;22411;53.016;18.632;2023-11-22T09:00:03;33.60;;;17.43;;
36379;SDS011;22411;53.016;18.632;2023-11-22T09:02:32;30.95;;;16.85;;
36379;SDS011;22411;53.016;18.632;2023-11-22T09:04:58;23.05;;;14.23;;
36379;SDS011;22411;53.016;18.632;2023-11-22T09:07:24;24.90;;;15.48;;
36379;SDS011;22411;53.016;18.632;2023-11-22T09:09:50;24.63;;;16.02;;
36379;SDS011;22411;53.016;18.632;2023-11-22T09:12:19;25.23;;;15.82;;
36379;SDS011;22411;53.016;18.632;2023-11-22T09:14:46;20.65;;;12.82;;
36379;SDS011;22411;53.016;18.632;2023-11-22T09:17:12;20.20;;;12.45;;
36379;SDS011;22411;53.016;18.632;2023-11-22T09:19:39;22.80;;;12.55;;
36379;SDS011;22411;53.016;18.632;2023-11-22T09:22:04;22.70;;;12.93;;
36379;SDS011;22411;53.016;18.632;2023-11-22T09:24:34;20.45;;;13.70;;
36379;SDS011;22411;53.016;18.632;2023-11-22T09:27:02;21.48;;;13.95;;
36379;SDS011;22411;53.016;18.632;2023-11-22T09:29:31;26.65;;;17.63;;
36379;SDS011;22411;53.016;18.632;2023-11-22T09:31:58;20.55;;;14.63;;
36379;SDS011;22411;53.016;18.632;2023-11-22T09:34:26;23.13;;;12.35;;
36379;SDS011;22411;53.016;18.632;2023-11-22T09:36:53;14.45;;;8.88;;
36379;SDS011;22411;53.016;18.632;2023-11-22T09:39:19;13.10;;;8.35;;
36379;SDS011;22411;53.016;18.632;2023-11-22T09:41:47;16.77;;;10.73;;
36379;SDS011;22411;53.016;18.632;2023-11-22T09:44:14;15.68;;;10.13;;
36379;SDS011;22411;53.016;18.632;2023-11-22T09:46:42;11.75;;;8.25;;
36379;SDS011;22411;53.016;18.632;2023-11-22T09:49:08;16.35;;;9.30;;
36379;SDS011;22411;53.016;18.632;2023-11-22T09:51:40;16.83;;;12.13;;
36379;SDS011;22411;53.016;18.632;2023-11-22T09:54:09;17.58;;;10.75;;
36379;SDS011;22411;53.016;18.632;2023-11-22T09:56:39;13.93;;;7.90;;
36379;SDS011;22411;53.016;18.632;2023-11-22T09:59:07;12.25;;;8.02;;
36379;SDS011;22411;53.016;18.632;2023-11-22T10:01:33;14.57;;;7.50;;
36379;SDS011;22411;53.016;18.632;2023-11-22T10:04:02;12.23;;;8.60;;
36379;SDS011;22411;53.016;18.632;2023-11-22T10:06:33;11.32;;;8.90;;
36379;SDS011;22411;53.016;18.632;2023-11-22T10:09:01;12.25;;;10.07;;
36379;SDS011;22411;53.016;18.632;2023-11-22T10:11:32;10.88;;;6.47;;
36379;SDS011;22411;53.016;18.632;2023-11-22T10:14:02;9.43;;;5.82;;
36379;SDS011;22411;53.016;18.632;2023-11-22T10:16:27;24.73;;;12.60;;
36379;SDS011;22411;53.016;18.632;2023-11-22T10:18:53;26.40;;;13.00;;
36379;SDS011;22411;53.016;18.632;2023-11-22T10:23:50;15.35;;;9.65;;
36379;SDS011;22411;53.016;18.632;2023-11-22T10:26:18;9.63;;;6.63;;
36379;SDS011;22411;53.016;18.632;2023-11-22T10:28:44;10.88;;;6.88;;
36379;SDS011;22411;53.016;18.632;2023-11-22T10:31:10;9.23;;;7.10;;
36379;SDS011;22411;53.016;18.632;2023-11-22T10:33:42;6.63;;;3.78;;
36379;SDS011;22411;53.016;18.632;2023-11-22T10:36:08;9.20;;;5.60;;
36379;SDS011;22411;53.016;18.632;2023-11-22T10:38:34;6.93;;;6.22;;
36379;SDS011;22411;53.016;18.632;2023-11-22T10:41:04;8.43;;;5.65;;
36379;SDS011;22411;53.016;18.632;2023-11-22T10:43:31;8.68;;;6.35;;
36379;SDS011;22411;53.016;18.632;2023-11-22T10:46:01;6.85;;;4.38;;
36379;SDS011;22411;53.016;18.632;2023-11-22T10:48:28;8.20;;;5.05;;
36379;SDS011;22411;53.016;18.632;2023-11-22T10:50:56;8.38;;;4.95;;
36379;SDS011;22411;53.016;18.632;2023-11-22T10:53:26;7.82;;;5.38;;
36379;SDS011;22411;53.016;18.632;2023-11-22T10:56:14;8.90;;;6.15;;
36379;SDS011;22411;53.016;18.632;2023-11-22T10:58:45;11.30;;;7.90;;
36379;SDS011;22411;53.016;18.632;2023-11-22T11:01:22;10.55;;;7.03;;
36379;SDS011;22411;53.016;18.632;2023-11-22T11:04:08;11.48;;;8.32;;
36379;SDS011;22411;53.016;18.632;2023-11-22T11:06:35;5.70;;;4.07;;
36379;SDS011;22411;53.016;18.632;2023-11-22T11:09:02;6.28;;;4.28;;
36379;SDS011;22411;53.016;18.632;2023-11-22T11:11:34;5.97;;;3.72;;
36379;SDS011;22411;53.016;18.632;2023-11-22T11:14:02;6.13;;;3.85;;
36379;SDS011;22411;53.016;18.632;2023-11-22T11:16:30;9.88;;;6.95;;
36379;SDS011;22411;53.016;18.632;2023-11-22T11:19:00;6.82;;;4.38;;
36379;SDS011;22411;53.016;18.632;2023-11-22T11:21:27;7.15;;;4.43;;
36379;SDS011;22411;53.016;18.632;2023-11-22T11:23:53;9.98;;;6.75;;
36379;SDS011;22411;53.016;18.632;2023-11-22T11:26:20;7.25;;;5.18;;
36379;SDS011;22411;53.016;18.632;2023-11-22T11:28:50;7.75;;;3.97;;
36379;SDS011;22411;53.016;18.632;2023-11-22T11:31:17;5.15;;;3.67;;
36379;SDS011;22411;53.016;18.632;2023-11-22T11:39:00;5.63;;;3.78;;
36379;SDS011;22411;53.016;18.632;2023-11-22T11:41:31;5.47;;;3.70;;
36379;SDS011;22411;53.016;18.632;2023-11-22T11:44:00;7.03;;;4.45;;
36379;SDS011;22411;53.016;18.632;2023-11-22T11:46:27;14.77;;;12.63;;
36379;SDS011;22411;53.016;18.632;2023-11-22T11:48:55;10.48;;;5.95;;
36379;SDS011;22411;53.016;18.632;2023-11-22T11:51:21;6.07;;;3.45;;
36379;SDS011;22411;53.016;18.632;2023-11-22T11:53:48;7.05;;;4.05;;
36379;SDS011;22411;53.016;18.632;2023-11-22T11:56:14;10.50;;;4.60;;
36379;SDS011;22411;53.016;18.632;2023-11-22T11:58:42;9.02;;;4.80;;
36379;SDS011;22411;53.016;18.632;2023-11-22T12:01:08;10.32;;;5.03;;
36379;SDS011;22411;53.016;18.632;2023-11-22T12:03:38;12.13;;;8.02;;
36379;SDS011;22411;53.016;18.632;2023-11-22T12:06:06;11.63;;;6.68;;
36379;SDS011;22411;53.016;18.632;2023-11-22T12:08:33;15.32;;;8.10;;
36379;SDS011;22411;53.016;18.632;2023-11-22T12:11:04;12.07;;;5.85;;
36379;SDS011;22411;53.016;18.632;2023-11-22T12:13:36;13.48;;;7.88;;
36379;SDS011;22411;53.016;18.632;2023-11-22T12:16:06;35.90;;;17.33;;
36379;SDS011;22411;53.016;18.632;2023-11-22T12:18:46;12.18;;;8.57;;
36379;SDS011;22411;53.016;18.632;2023-11-22T12:21:13;12.88;;;7.15;;
36379;SDS011;22411;53.016;18.632;2023-11-22T12:23:40;44.70;;;23.17;;
36379;SDS011;22411;53.016;18.632;2023-11-22T12:26:14;14.55;;;7.78;;
36379;SDS011;22411;53.016;18.632;2023-11-22T12:28:41;29.63;;;16.48;;
36379;SDS011;22411;53.016;18.632;2023-11-22T12:31:10;10.02;;;5.38;;
36379;SDS011;22411;53.016;18.632;2023-11-22T12:33:38;10.48;;;4.70;;
36379;SDS011;22411;53.016;18.632;2023-11-22T12:36:05;7.50;;;4.68;;
36379;SDS011;22411;53.016;18.632;2023-11-22T12:38:32;9.25;;;5.82;;
36379;SDS011;22411;53.016;18.632;2023-11-22T12:40:59;9.07;;;4.40;;
36379;SDS011;22411;53.016;18.632;2023-11-22T12:43:29;8.43;;;4.65;;
36379;SDS011;22411;53.016;18.632;2023-11-22T12:45:59;10.75;;;7.72;;
36379;SDS011;22411;53.016;18.632;2023-11-22T12:48:26;6.75;;;3.97;;
36379;SDS011;22411;53.016;18.632;2023-11-22T12:50:55;24.67;;;17.73;;
36379;SDS011;22411;53.016;18.632;2023-11-22T12:53:23;9.65;;;6.20;;
36379;SDS011;22411;53.016;18.632;2023-11-22T12:55:51;9.90;;;4.93;;
36379;SDS011;22411;53.016;18.632;2023-11-22T12:58:18;7.22;;;4.30;;
36379;SDS011;22411;53.016;18.632;2023-11-22T13:00:45;14.75;;;8.73;;
36379;SDS011;22411;53.016;18.632;2023-11-22T13:03:12;8.07;;;5.50;;
36379;SDS011;22411;53.016;18.632;2023-11-22T13:05:45;9.68;;;6.00;;
36379;SDS011;22411;53.016;18.632;2023-11-22T13:08:11;7.13;;;4.35;;
36379;SDS011;22411;53.016;18.632;2023-11-22T13:13:13;10.25;;;5.85;;
36379;SDS011;22411;53.016;18.632;2023-11-22T13:15:39;10.38;;;5.28;;
36379;SDS011;22411;53.016;18.632;2023-11-22T13:18:09;9.48;;;4.68;;
36379;SDS011;22411;53.016;18.632;2023-11-22T13:20:34;8.90;;;5.38;;
36379;SDS011;22411;53.016;18.632;2023-11-22T13:23:01;7.75;;;4.20;;
36379;SDS011;22411;53.016;18.632;2023-11-22T13:25:28;9.57;;;5.25;;
36379;SDS011;22411;53.016;18.632;2023-11-22T13:27:54;9.85;;;5.15;;
36379;SDS011;22411;53.016;18.632;2023-11-22T13:30:22;11.27;;;5.32;;
36379;SDS011;22411;53.016;18.632;2023-11-22T13:32:49;10.60;;;6.70;;
36379;SDS011;22411;53.016;18.632;2023-11-22T13:35:15;7.13;;;4.30;;
36379;SDS011;22411;53.016;18.632;2023-11-22T13:37:45;8.17;;;3.90;;
36379;SDS011;22411;53.016;18.632;2023-11-22T13:40:13;10.33;;;5.77;;
36379;SDS011;22411;53.016;18.632;2023-11-22T13:42:43;7.87;;;4.17;;
36379;SDS011;22411;53.016;18.632;2023-11-22T13:45:10;9.17;;;5.23;;
36379;SDS011;22411;53.016;18.632;2023-11-22T13:47:41;14.35;;;7.57;;
36379;SDS011;22411;53.016;18.632;2023-11-22T13:50:09;15.13;;;7.20;;
36379;SDS011;22411;53.016;18.632;2023-11-22T13:52:35;18.27;;;8.93;;
36379;SDS011;22411;53.016;18.632;2023-11-22T13:55:00;21.97;;;10.03;;
36379;SDS011;22411;53.016;18.632;2023-11-22T13:57:30;21.47;;;12.10;;
36379;SDS011;22411;53.016;18.632;2023-11-22T13:59:56;19.00;;;9.03;;
36379;SDS011;22411;53.016;18.632;2023-11-22T14:02:22;28.10;;;13.70;;
36379;SDS011;22411;53.016;18.632;2023-11-22T14:04:48;20.23;;;11.03;;
36379;SDS011;22411;53.016;18.632;2023-11-22T14:07:14;21.30;;;11.07;;
36379;SDS011;22411;53.016;18.632;2023-11-22T14:09:39;20.20;;;11.03;;
36379;SDS011;22411;53.016;18.632;2023-11-22T14:12:05;21.93;;;9.37;;
36379;SDS011;22411;53.016;18.632;2023-11-22T14:14:31;13.97;;;8.90;;
36379;SDS011;22411;53.016;18.632;2023-11-22T14:16:57;16.60;;;8.53;;
36379;SDS011;22411;53.016;18.632;2023-11-22T14:19:22;16.83;;;8.77;;
36379;SDS011;22411;53.016;18.632;2023-11-22T14:21:48;16.33;;;8.67;;
36379;SDS011;22411;53.016;18.632;2023-11-22T14:24:14;11.97;;;7.57;;
36379;SDS011;22411;53.016;18.632;2023-11-22T14:26:40;16.30;;;9.27;;
36379;SDS011;22411;53.016;18.632;2023-11-22T14:29:06;17.80;;;8.73;;